sensor_id;sensor_type;location;lat;lon;timestamp;P1;durP1;ratioP1;P2;durP2;ratioP2
19605;SDS011;9950;50.168;8.210;2024-03-22T00:02:06;27.08;;;15.15;;
19605;SDS011;9950;50.168;8.210;2024-03-22T00:04:35;25.27;;;14.30;;
19605;SDS011;9950;50.168;8.210;2024-03-22T00:07:02;27.45;;;14.85;;
19605;SDS011;9950;50.168;8.210;2024-03-22T00:09:28;28.70;;;14.10;;
19605;SDS011;9950;50.168;8.210;2024-03-22T00:11:56;25.48;;;14.63;;
19605;SDS011;9950;50.168;8.210;2024-03-22T00:14:22;26.80;;;14.85;;
19605;SDS011;9950;50.168;8.210;2024-03-22T00:16:49;28.77;;;15.32;;
19605;SDS011;9950;50.168;8.210;2024-03-22T00:19:15;28.35;;;15.50;;
19605;SDS011;9950;50.168;8.210;2024-03-22T00:21:44;30.45;;;16.60;;
19605;SDS011;9950;50.168;8.210;2024-03-22T00:24:10;32.72;;;17.35;;
19605;SDS011;9950;50.168;8.210;2024-03-22T00:26:37;33.40;;;17.20;;
19605;SDS011;9950;50.168;8.210;2024-03-22T00:29:04;29.48;;;16.92;;
19605;SDS011;9950;50.168;8.210;2024-03-22T00:31:31;29.95;;;16.42;;
19605;SDS011;9950;50.168;8.210;2024-03-22T00:33:57;32.35;;;15.95;;
19605;SDS011;9950;50.168;8.210;2024-03-22T00:36:24;28.98;;;14.82;;
19605;SDS011;9950;50.168;8.210;2024-03-22T00:38:52;30.27;;;15.30;;
19605;SDS011;9950;50.168;8.210;2024-03-22T00:41:19;30.70;;;15.02;;
19605;SDS011;9950;50.168;8.210;2024-03-22T00:43:45;31.17;;;15.85;;
19605;SDS011;9950;50.168;8.210;2024-03-22T00:46:12;29.17;;;16.02;;
19605;SDS011;9950;50.168;8.210;2024-03-22T00:48:39;29.75;;;15.38;;
19605;SDS011;9950;50.168;8.210;2024-03-22T00:51:06;26.88;;;14.75;;
19605;SDS011;9950;50.168;8.210;2024-03-22T00:53:32;29.02;;;15.52;;
19605;SDS011;9950;50.168;8.210;2024-03-22T00:56:00;29.05;;;15.43;;
19605;SDS011;9950;50.168;8.210;2024-03-22T00:58:27;30.10;;;15.75;;
19605;SDS011;9950;50.168;8.210;2024-03-22T01:00:54;30.73;;;16.60;;
19605;SDS011;9950;50.168;8.210;2024-03-22T01:03:20;28.73;;;15.45;;
19605;SDS011;9950;50.168;8.210;2024-03-22T01:05:47;26.90;;;14.70;;
19605;SDS011;9950;50.168;8.210;2024-03-22T01:08:14;27.30;;;14.68;;
19605;SDS011;9950;50.168;8.210;2024-03-22T01:10:41;28.75;;;14.80;;
19605;SDS011;9950;50.168;8.210;2024-03-22T01:13:08;35.90;;;15.57;;
19605;SDS011;9950;50.168;8.210;2024-03-22T01:15:35;31.35;;;16.30;;
19605;SDS011;9950;50.168;8.210;2024-03-22T01:18:02;27.00;;;13.27;;
19605;SDS011;9950;50.168;8.210;2024-03-22T01:20:29;26.85;;;13.18;;
19605;SDS011;9950;50.168;8.210;2024-03-22T01:22:55;26.98;;;13.55;;
19605;SDS011;9950;50.168;8.210;2024-03-22T01:25:22;23.92;;;13.02;;
19605;SDS011;9950;50.168;8.210;2024-03-22T01:27:48;30.58;;;13.10;;
19605;SDS011;9950;50.168;8.210;2024-03-22T01:30:17;28.83;;;13.63;;
19605;SDS011;9950;50.168;8.210;2024-03-22T01:32:43;31.13;;;14.15;;
19605;SDS011;9950;50.168;8.210;2024-03-22T01:35:10;34.33;;;16.55;;
19605;SDS011;9950;50.168;8.210;2024-03-22T01:37:36;27.63;;;12.98;;
19605;SDS011;9950;50.168;8.210;2024-03-22T01:40:04;31.30;;;14.40;;
19605;SDS011;9950;50.168;8.210;2024-03-22T01:42:30;31.85;;;15.00;;
19605;SDS011;9950;50.168;8.210;2024-03-22T01:44:57;30.42;;;14.55;;
19605;SDS011;9950;50.168;8.210;2024-03-22T01:47:25;32.33;;;15.40;;
19605;SDS011;9950;50.168;8.210;2024-03-22T01:49:53;32.28;;;14.82;;
19605;SDS011;9950;50.168;8.210;2024-03-22T01:52:20;27.77;;;12.63;;
19605;SDS011;9950;50.168;8.210;2024-03-22T01:54:48;31.70;;;15.18;;
19605;SDS011;9950;50.168;8.210;2024-03-22T01:57:14;27.70;;;12.57;;
19605;SDS011;9950;50.168;8.210;2024-03-22T01:59:41;27.25;;;13.20;;
19605;SDS011;9950;50.168;8.210;2024-03-22T02:02:08;23.90;;;11.73;;
19605;SDS011;9950;50.168;8.210;2024-03-22T02:04:37;27.42;;;12.35;;
19605;SDS011;9950;50.168;8.210;2024-03-22T02:07:03;26.75;;;12.77;;
19605;SDS011;9950;50.168;8.210;2024-03-22T02:09:31;30.35;;;14.30;;
19605;SDS011;9950;50.168;8.210;2024-03-22T02:11:57;34.75;;;15.43;;
19605;SDS011;9950;50.168;8.210;2024-03-22T02:14:24;32.50;;;13.88;;
19605;SDS011;9950;50.168;8.210;2024-03-22T02:16:50;37.00;;;16.15;;
19605;SDS011;9950;50.168;8.210;2024-03-22T02:19:17;35.00;;;16.13;;
19605;SDS011;9950;50.168;8.210;2024-03-22T02:21:45;32.17;;;15.30;;
19605;SDS011;9950;50.168;8.210;2024-03-22T02:24:13;32.58;;;15.70;;
19605;SDS011;9950;50.168;8.210;2024-03-22T02:26:39;33.88;;;16.05;;
19605;SDS011;9950;50.168;8.210;2024-03-22T02:29:07;36.58;;;15.07;;
19605;SDS011;9950;50.168;8.210;2024-03-22T02:31:33;28.70;;;14.43;;
19605;SDS011;9950;50.168;8.210;2024-03-22T02:34:00;30.85;;;14.07;;
19605;SDS011;9950;50.168;8.210;2024-03-22T02:36:26;36.95;;;15.82;;
19605;SDS011;9950;50.168;8.210;2024-03-22T02:38:53;36.40;;;15.25;;
19605;SDS011;9950;50.168;8.210;2024-03-22T02:41:21;33.67;;;15.07;;
19605;SDS011;9950;50.168;8.210;2024-03-22T02:43:48;35.40;;;15.93;;
19605;SDS011;9950;50.168;8.210;2024-03-22T02:46:14;35.50;;;15.00;;
19605;SDS011;9950;50.168;8.210;2024-03-22T02:48:41;36.47;;;16.15;;
19605;SDS011;9950;50.168;8.210;2024-03-22T02:51:08;32.35;;;15.57;;
19605;SDS011;9950;50.168;8.210;2024-03-22T02:53:35;31.60;;;14.75;;
19605;SDS011;9950;50.168;8.210;2024-03-22T02:56:01;35.75;;;15.02;;
19605;SDS011;9950;50.168;8.210;2024-03-22T02:58:29;31.25;;;14.15;;
19605;SDS011;9950;50.168;8.210;2024-03-22T03:00:56;34.38;;;14.82;;
19605;SDS011;9950;50.168;8.210;2024-03-22T03:03:23;33.50;;;14.15;;
19605;SDS011;9950;50.168;8.210;2024-03-22T03:05:49;37.45;;;14.90;;
19605;SDS011;9950;50.168;8.210;2024-03-22T03:08:17;33.38;;;14.65;;
19605;SDS011;9950;50.168;8.210;2024-03-22T03:10:43;32.08;;;13.82;;
19605;SDS011;9950;50.168;8.210;2024-03-22T03:13:10;37.03;;;15.52;;
19605;SDS011;9950;50.168;8.210;2024-03-22T03:15:38;35.03;;;15.20;;
19605;SDS011;9950;50.168;8.210;2024-03-22T03:18:05;31.17;;;13.98;;
19605;SDS011;9950;50.168;8.210;2024-03-22T03:20:31;35.83;;;13.43;;
19605;SDS011;9950;50.168;8.210;2024-03-22T03:22:58;28.98;;;13.40;;
19605;SDS011;9950;50.168;8.210;2024-03-22T03:25:24;29.10;;;13.07;;
19605;SDS011;9950;50.168;8.210;2024-03-22T03:27:52;30.98;;;13.07;;
19605;SDS011;9950;50.168;8.210;2024-03-22T03:30:18;29.83;;;12.98;;
19605;SDS011;9950;50.168;8.210;2024-03-22T03:32:46;33.03;;;13.65;;
19605;SDS011;9950;50.168;8.210;2024-03-22T03:35:13;31.52;;;14.13;;
19605;SDS011;9950;50.168;8.210;2024-03-22T03:37:40;30.02;;;11.50;;
19605;SDS011;9950;50.168;8.210;2024-03-22T03:40:07;27.60;;;12.57;;
19605;SDS011;9950;50.168;8.210;2024-03-22T03:42:34;32.70;;;13.77;;
19605;SDS011;9950;50.168;8.210;2024-03-22T03:45:00;25.02;;;10.82;;
19605;SDS011;9950;50.168;8.210;2024-03-22T03:47:27;29.52;;;12.38;;
19605;SDS011;9950;50.168;8.210;2024-03-22T03:49:55;31.17;;;12.65;;
19605;SDS011;9950;50.168;8.210;2024-03-22T03:52:22;33.33;;;14.27;;
19605;SDS011;9950;50.168;8.210;2024-03-22T03:54:48;32.65;;;13.57;;
19605;SDS011;9950;50.168;8.210;2024-03-22T03:57:15;36.40;;;14.23;;
19605;SDS011;9950;50.168;8.210;2024-03-22T03:59:41;34.38;;;14.25;;
19605;SDS011;9950;50.168;8.210;2024-03-22T04:02:08;26.92;;;10.95;;
19605;SDS011;9950;50.168;8.210;2024-03-22T04:04:34;27.55;;;12.60;;
19605;SDS011;9950;50.168;8.210;2024-03-22T04:07:03;31.38;;;12.93;;
19605;SDS011;9950;50.168;8.210;2024-03-22T04:09:29;28.73;;;13.13;;
19605;SDS011;9950;50.168;8.210;2024-03-22T04:11:56;34.85;;;13.32;;
19605;SDS011;9950;50.168;8.210;2024-03-22T04:14:23;28.45;;;13.20;;
19605;SDS011;9950;50.168;8.210;2024-03-22T04:16:51;23.92;;;11.48;;
19605;SDS011;9950;50.168;8.210;2024-03-22T04:19:19;29.42;;;12.32;;
19605;SDS011;9950;50.168;8.210;2024-03-22T04:21:46;27.60;;;11.50;;
19605;SDS011;9950;50.168;8.210;2024-03-22T04:24:14;24.95;;;11.70;;
19605;SDS011;9950;50.168;8.210;2024-03-22T04:26:41;27.63;;;11.75;;
19605;SDS011;9950;50.168;8.210;2024-03-22T04:29:07;28.40;;;11.88;;
19605;SDS011;9950;50.168;8.210;2024-03-22T04:31:34;26.23;;;12.70;;
19605;SDS011;9950;50.168;8.210;2024-03-22T04:34:00;28.40;;;12.85;;
19605;SDS011;9950;50.168;8.210;2024-03-22T04:36:27;33.88;;;13.93;;
19605;SDS011;9950;50.168;8.210;2024-03-22T04:38:53;30.30;;;13.77;;
19605;SDS011;9950;50.168;8.210;2024-03-22T04:41:22;32.00;;;13.25;;
19605;SDS011;9950;50.168;8.210;2024-03-22T04:43:49;29.52;;;12.68;;
19605;SDS011;9950;50.168;8.210;2024-03-22T04:46:16;36.00;;;14.73;;
19605;SDS011;9950;50.168;8.210;2024-03-22T04:48:42;32.95;;;13.38;;
19605;SDS011;9950;50.168;8.210;2024-03-22T04:51:09;33.45;;;13.52;;
19605;SDS011;9950;50.168;8.210;2024-03-22T04:53:35;29.77;;;11.20;;
19605;SDS011;9950;50.168;8.210;2024-03-22T04:56:03;25.15;;;11.07;;
19605;SDS011;9950;50.168;8.210;2024-03-22T04:58:31;27.13;;;12.40;;
19605;SDS011;9950;50.168;8.210;2024-03-22T05:00:58;25.42;;;11.90;;
19605;SDS011;9950;50.168;8.210;2024-03-22T05:03:24;27.55;;;12.00;;
19605;SDS011;9950;50.168;8.210;2024-03-22T05:05:51;25.23;;;11.93;;
19605;SDS011;9950;50.168;8.210;2024-03-22T05:08:18;28.08;;;12.40;;
19605;SDS011;9950;50.168;8.210;2024-03-22T05:10:45;33.35;;;14.52;;
19605;SDS011;9950;50.168;8.210;2024-03-22T05:13:12;29.00;;;12.75;;
19605;SDS011;9950;50.168;8.210;2024-03-22T05:15:40;24.70;;;12.50;;
19605;SDS011;9950;50.168;8.210;2024-03-22T05:18:06;24.17;;;12.00;;
19605;SDS011;9950;50.168;8.210;2024-03-22T05:20:33;29.17;;;11.75;;
19605;SDS011;9950;50.168;8.210;2024-03-22T05:22:59;29.67;;;12.48;;
19605;SDS011;9950;50.168;8.210;2024-03-22T05:25:26;27.52;;;13.25;;
19605;SDS011;9950;50.168;8.210;2024-03-22T05:27:52;28.38;;;13.00;;
19605;SDS011;9950;50.168;8.210;2024-03-22T05:30:21;31.30;;;14.00;;
19605;SDS011;9950;50.168;8.210;2024-03-22T05:32:48;32.13;;;13.43;;
19605;SDS011;9950;50.168;8.210;2024-03-22T05:35:16;29.65;;;13.02;;
19605;SDS011;9950;50.168;8.210;2024-03-22T05:37:43;26.13;;;11.90;;
19605;SDS011;9950;50.168;8.210;2024-03-22T05:40:11;26.42;;;11.77;;
19605;SDS011;9950;50.168;8.210;2024-03-22T05:42:37;24.65;;;11.48;;
19605;SDS011;9950;50.168;8.210;2024-03-22T05:45:05;24.10;;;10.68;;
19605;SDS011;9950;50.168;8.210;2024-03-22T05:47:31;27.27;;;11.75;;
19605;SDS011;9950;50.168;8.210;2024-03-22T05:49:59;27.00;;;11.25;;
19605;SDS011;9950;50.168;8.210;2024-03-22T05:52:26;26.48;;;11.60;;
19605;SDS011;9950;50.168;8.210;2024-03-22T05:54:54;28.15;;;12.23;;
19605;SDS011;9950;50.168;8.210;2024-03-22T05:57:20;24.48;;;12.02;;
19605;SDS011;9950;50.168;8.210;2024-03-22T05:59:47;28.13;;;13.18;;
19605;SDS011;9950;50.168;8.210;2024-03-22T06:02:14;28.65;;;13.05;;
19605;SDS011;9950;50.168;8.210;2024-03-22T06:04:41;30.85;;;13.52;;
19605;SDS011;9950;50.168;8.210;2024-03-22T06:07:09;28.05;;;13.13;;
19605;SDS011;9950;50.168;8.210;2024-03-22T06:09:36;28.88;;;12.50;;
19605;SDS011;9950;50.168;8.210;2024-03-22T06:12:03;28.85;;;12.85;;
19605;SDS011;9950;50.168;8.210;2024-03-22T06:14:30;30.83;;;12.57;;
19605;SDS011;9950;50.168;8.210;2024-03-22T06:16:56;28.10;;;12.30;;
19605;SDS011;9950;50.168;8.210;2024-03-22T06:19:23;26.15;;;12.02;;
19605;SDS011;9950;50.168;8.210;2024-03-22T06:21:49;28.52;;;12.07;;
19605;SDS011;9950;50.168;8.210;2024-03-22T06:24:18;29.02;;;12.90;;
19605;SDS011;9950;50.168;8.210;2024-03-22T06:26:44;24.77;;;11.75;;
19605;SDS011;9950;50.168;8.210;2024-03-22T06:29:11;24.73;;;11.73;;
19605;SDS011;9950;50.168;8.210;2024-03-22T06:31:37;26.55;;;11.52;;
19605;SDS011;9950;50.168;8.210;2024-03-22T06:34:05;26.45;;;11.95;;
19605;SDS011;9950;50.168;8.210;2024-03-22T06:36:31;22.35;;;11.10;;
19605;SDS011;9950;50.168;8.210;2024-03-22T06:38:58;29.23;;;12.50;;
19605;SDS011;9950;50.168;8.210;2024-03-22T06:41:27;23.00;;;11.07;;
19605;SDS011;9950;50.168;8.210;2024-03-22T06:43:54;24.25;;;10.85;;
19605;SDS011;9950;50.168;8.210;2024-03-22T06:46:20;22.30;;;11.30;;
19605;SDS011;9950;50.168;8.210;2024-03-22T06:48:48;22.35;;;11.20;;
19605;SDS011;9950;50.168;8.210;2024-03-22T06:51:14;24.05;;;11.68;;
19605;SDS011;9950;50.168;8.210;2024-03-22T06:53:41;23.50;;;10.80;;
19605;SDS011;9950;50.168;8.210;2024-03-22T06:56:07;21.58;;;11.32;;
19605;SDS011;9950;50.168;8.210;2024-03-22T06:58:38;23.30;;;11.57;;
19605;SDS011;9950;50.168;8.210;2024-03-22T07:01:04;23.52;;;10.75;;
19605;SDS011;9950;50.168;8.210;2024-03-22T07:03:31;20.23;;;9.85;;
19605;SDS011;9950;50.168;8.210;2024-03-22T07:05:57;19.88;;;10.75;;
19605;SDS011;9950;50.168;8.210;2024-03-22T07:08:25;17.15;;;9.07;;
19605;SDS011;9950;50.168;8.210;2024-03-22T07:10:51;20.02;;;10.32;;
19605;SDS011;9950;50.168;8.210;2024-03-22T07:13:19;19.52;;;10.52;;
19605;SDS011;9950;50.168;8.210;2024-03-22T07:15:47;18.25;;;9.82;;
19605;SDS011;9950;50.168;8.210;2024-03-22T07:18:14;19.42;;;9.20;;
19605;SDS011;9950;50.168;8.210;2024-03-22T07:20:40;18.15;;;9.25;;
19605;SDS011;9950;50.168;8.210;2024-03-22T07:23:08;15.48;;;9.15;;
19605;SDS011;9950;50.168;8.210;2024-03-22T07:25:34;17.83;;;9.60;;
19605;SDS011;9950;50.168;8.210;2024-03-22T07:28:01;15.82;;;8.32;;
19605;SDS011;9950;50.168;8.210;2024-03-22T07:30:27;19.50;;;8.73;;
19605;SDS011;9950;50.168;8.210;2024-03-22T07:32:55;15.82;;;8.32;;
19605;SDS011;9950;50.168;8.210;2024-03-22T07:35:22;16.75;;;7.65;;
19605;SDS011;9950;50.168;8.210;2024-03-22T07:37:50;12.80;;;7.28;;
19605;SDS011;9950;50.168;8.210;2024-03-22T07:40:16;21.90;;;7.45;;
19605;SDS011;9950;50.168;8.210;2024-03-22T07:42:45;11.68;;;6.15;;
19605;SDS011;9950;50.168;8.210;2024-03-22T07:45:11;10.02;;;5.80;;
19605;SDS011;9950;50.168;8.210;2024-03-22T07:47:38;13.68;;;6.43;;
19605;SDS011;9950;50.168;8.210;2024-03-22T07:50:08;9.45;;;5.32;;
19605;SDS011;9950;50.168;8.210;2024-03-22T07:52:36;8.88;;;5.85;;
19605;SDS011;9950;50.168;8.210;2024-03-22T07:55:02;8.70;;;4.45;;
19605;SDS011;9950;50.168;8.210;2024-03-22T07:57:29;7.53;;;4.57;;
19605;SDS011;9950;50.168;8.210;2024-03-22T07:59:56;6.93;;;3.88;;
19605;SDS011;9950;50.168;8.210;2024-03-22T08:02:23;7.45;;;4.15;;
19605;SDS011;9950;50.168;8.210;2024-03-22T08:04:49;9.25;;;3.92;;
19605;SDS011;9950;50.168;8.210;2024-03-22T08:07:17;5.50;;;3.60;;
19605;SDS011;9950;50.168;8.210;2024-03-22T08:09:43;5.55;;;3.20;;
19605;SDS011;9950;50.168;8.210;2024-03-22T08:12:11;5.95;;;3.22;;
19605;SDS011;9950;50.168;8.210;2024-03-22T08:14:37;5.82;;;3.53;;
19605;SDS011;9950;50.168;8.210;2024-03-22T08:17:04;4.85;;;3.03;;
19605;SDS011;9950;50.168;8.210;2024-03-22T08:19:31;5.28;;;3.42;;
19605;SDS011;9950;50.168;8.210;2024-03-22T08:21:58;5.07;;;2.90;;
19605;SDS011;9950;50.168;8.210;2024-03-22T08:24:25;4.30;;;2.80;;
19605;SDS011;9950;50.168;8.210;2024-03-22T08:26:52;5.93;;;2.80;;
19605;SDS011;9950;50.168;8.210;2024-03-22T08:29:19;3.25;;;2.25;;
19605;SDS011;9950;50.168;8.210;2024-03-22T08:31:46;4.30;;;2.88;;
19605;SDS011;9950;50.168;8.210;2024-03-22T08:34:12;4.40;;;2.75;;
19605;SDS011;9950;50.168;8.210;2024-03-22T08:36:39;4.20;;;2.60;;
19605;SDS011;9950;50.168;8.210;2024-03-22T08:39:05;4.45;;;2.80;;
19605;SDS011;9950;50.168;8.210;2024-03-22T08:41:36;5.55;;;2.97;;
19605;SDS011;9950;50.168;8.210;2024-03-22T08:44:03;4.90;;;2.90;;
19605;SDS011;9950;50.168;8.210;2024-03-22T08:46:30;4.68;;;3.60;;
19605;SDS011;9950;50.168;8.210;2024-03-22T08:48:57;4.43;;;3.10;;
19605;SDS011;9950;50.168;8.210;2024-03-22T08:51:24;8.70;;;3.58;;
19605;SDS011;9950;50.168;8.210;2024-03-22T08:53:51;7.20;;;3.42;;
19605;SDS011;9950;50.168;8.210;2024-03-22T08:56:18;4.10;;;2.88;;
19605;SDS011;9950;50.168;8.210;2024-03-22T08:58:45;4.75;;;3.33;;
19605;SDS011;9950;50.168;8.210;2024-03-22T09:01:12;6.60;;;3.63;;
19605;SDS011;9950;50.168;8.210;2024-03-22T09:03:39;6.25;;;3.90;;
19605;SDS011;9950;50.168;8.210;2024-03-22T09:06:06;5.75;;;3.72;;
19605;SDS011;9950;50.168;8.210;2024-03-22T09:08:32;5.32;;;3.55;;
19605;SDS011;9950;50.168;8.210;2024-03-22T09:10:59;8.63;;;4.90;;
19605;SDS011;9950;50.168;8.210;2024-03-22T09:13:25;8.77;;;4.53;;
19605;SDS011;9950;50.168;8.210;2024-03-22T09:15:57;9.88;;;5.53;;
19605;SDS011;9950;50.168;8.210;2024-03-22T09:18:23;7.18;;;4.63;;
19605;SDS011;9950;50.168;8.210;2024-03-22T09:20:51;12.80;;;6.22;;
19605;SDS011;9950;50.168;8.210;2024-03-22T09:23:18;8.63;;;5.65;;
19605;SDS011;9950;50.168;8.210;2024-03-22T09:25:45;7.43;;;5.47;;
19605;SDS011;9950;50.168;8.210;2024-03-22T09:28:11;10.55;;;6.22;;
19605;SDS011;9950;50.168;8.210;2024-03-22T09:30:38;9.85;;;6.38;;
19605;SDS011;9950;50.168;8.210;2024-03-22T09:33:06;12.90;;;8.65;;
19605;SDS011;9950;50.168;8.210;2024-03-22T09:35:34;11.68;;;7.30;;
19605;SDS011;9950;50.168;8.210;2024-03-22T09:38:00;15.23;;;7.68;;
19605;SDS011;9950;50.168;8.210;2024-03-22T09:40:27;12.63;;;6.60;;
19605;SDS011;9950;50.168;8.210;2024-03-22T09:42:53;14.35;;;8.43;;
19605;SDS011;9950;50.168;8.210;2024-03-22T09:45:24;12.82;;;8.52;;
19605;SDS011;9950;50.168;8.210;2024-03-22T09:47:51;16.50;;;9.10;;
19605;SDS011;9950;50.168;8.210;2024-03-22T09:50:22;12.93;;;8.82;;
19605;SDS011;9950;50.168;8.210;2024-03-22T09:52:48;12.75;;;8.60;;
19605;SDS011;9950;50.168;8.210;2024-03-22T09:55:15;14.50;;;9.77;;
19605;SDS011;9950;50.168;8.210;2024-03-22T09:57:41;12.95;;;8.93;;
19605;SDS011;9950;50.168;8.210;2024-03-22T10:00:10;13.98;;;9.18;;
19605;SDS011;9950;50.168;8.210;2024-03-22T10:02:39;17.25;;;9.18;;
19605;SDS011;9950;50.168;8.210;2024-03-22T10:05:06;12.73;;;9.27;;
19605;SDS011;9950;50.168;8.210;2024-03-22T10:07:34;13.23;;;9.40;;
19605;SDS011;9950;50.168;8.210;2024-03-22T10:10:02;13.88;;;8.95;;
19605;SDS011;9950;50.168;8.210;2024-03-22T10:12:28;17.45;;;9.10;;
19605;SDS011;9950;50.168;8.210;2024-03-22T10:14:55;16.40;;;10.07;;
19605;SDS011;9950;50.168;8.210;2024-03-22T10:17:21;15.63;;;9.60;;
19605;SDS011;9950;50.168;8.210;2024-03-22T10:19:49;16.90;;;10.15;;
19605;SDS011;9950;50.168;8.210;2024-03-22T10:22:16;14.80;;;9.55;;
19605;SDS011;9950;50.168;8.210;2024-03-22T10:24:45;15.68;;;9.55;;
19605;SDS011;9950;50.168;8.210;2024-03-22T10:27:11;19.10;;;9.40;;
19605;SDS011;9950;50.168;8.210;2024-03-22T10:29:38;17.85;;;10.73;;
19605;SDS011;9950;50.168;8.210;2024-03-22T10:32:05;13.25;;;10.10;;
19605;SDS011;9950;50.168;8.210;2024-03-22T10:34:33;16.17;;;10.27;;
19605;SDS011;9950;50.168;8.210;2024-03-22T10:37:00;15.68;;;9.70;;
19605;SDS011;9950;50.168;8.210;2024-03-22T10:39:27;15.75;;;9.70;;
19605;SDS011;9950;50.168;8.210;2024-03-22T10:41:55;13.82;;;9.10;;
19605;SDS011;9950;50.168;8.210;2024-03-22T10:44:22;14.95;;;8.80;;
19605;SDS011;9950;50.168;8.210;2024-03-22T10:46:48;13.10;;;9.13;;
19605;SDS011;9950;50.168;8.210;2024-03-22T10:49:18;14.98;;;9.23;;
19605;SDS011;9950;50.168;8.210;2024-03-22T10:51:46;14.38;;;9.35;;
19605;SDS011;9950;50.168;8.210;2024-03-22T10:54:14;12.95;;;8.07;;
19605;SDS011;9950;50.168;8.210;2024-03-22T10:56:42;17.58;;;9.73;;
19605;SDS011;9950;50.168;8.210;2024-03-22T10:59:14;14.07;;;8.98;;
19605;SDS011;9950;50.168;8.210;2024-03-22T11:01:44;13.25;;;8.57;;
19605;SDS011;9950;50.168;8.210;2024-03-22T11:04:12;13.00;;;8.15;;
19605;SDS011;9950;50.168;8.210;2024-03-22T11:06:38;14.60;;;9.18;;
19605;SDS011;9950;50.168;8.210;2024-03-22T11:09:07;15.55;;;8.68;;
19605;SDS011;9950;50.168;8.210;2024-03-22T11:11:35;16.30;;;8.57;;
19605;SDS011;9950;50.168;8.210;2024-03-22T11:14:03;12.93;;;8.65;;
19605;SDS011;9950;50.168;8.210;2024-03-22T11:16:30;13.52;;;9.02;;
19605;SDS011;9950;50.168;8.210;2024-03-22T11:18:58;15.25;;;8.77;;
19605;SDS011;9950;50.168;8.210;2024-03-22T11:21:24;13.40;;;8.20;;
19605;SDS011;9950;50.168;8.210;2024-03-22T11:23:51;13.23;;;8.45;;
19605;SDS011;9950;50.168;8.210;2024-03-22T11:26:17;20.27;;;8.57;;
19605;SDS011;9950;50.168;8.210;2024-03-22T11:28:44;13.93;;;8.35;;
19605;SDS011;9950;50.168;8.210;2024-03-22T11:31:10;14.20;;;8.55;;
19605;SDS011;9950;50.168;8.210;2024-03-22T11:33:40;12.00;;;8.10;;
19605;SDS011;9950;50.168;8.210;2024-03-22T11:36:06;13.23;;;8.23;;
19605;SDS011;9950;50.168;8.210;2024-03-22T11:38:34;17.48;;;8.55;;
19605;SDS011;9950;50.168;8.210;2024-03-22T11:41:00;14.32;;;8.20;;
19605;SDS011;9950;50.168;8.210;2024-03-22T11:43:28;12.48;;;8.70;;
19605;SDS011;9950;50.168;8.210;2024-03-22T11:45:55;13.48;;;8.05;;
19605;SDS011;9950;50.168;8.210;2024-03-22T11:48:22;13.38;;;8.90;;
19605;SDS011;9950;50.168;8.210;2024-03-22T11:50:50;12.07;;;8.10;;
19605;SDS011;9950;50.168;8.210;2024-03-22T11:53:17;14.38;;;8.82;;
19605;SDS011;9950;50.168;8.210;2024-03-22T11:55:44;13.82;;;8.90;;
19605;SDS011;9950;50.168;8.210;2024-03-22T11:58:11;15.65;;;9.23;;
19605;SDS011;9950;50.168;8.210;2024-03-22T12:00:37;10.77;;;8.13;;
19605;SDS011;9950;50.168;8.210;2024-03-22T12:03:05;13.73;;;9.30;;
19605;SDS011;9950;50.168;8.210;2024-03-22T12:05:31;13.60;;;8.98;;
19605;SDS011;9950;50.168;8.210;2024-03-22T12:07:59;15.07;;;9.48;;
19605;SDS011;9950;50.168;8.210;2024-03-22T12:10:26;16.45;;;9.25;;
19605;SDS011;9950;50.168;8.210;2024-03-22T12:12:53;13.98;;;8.75;;
19605;SDS011;9950;50.168;8.210;2024-03-22T12:15:20;16.33;;;9.65;;
19605;SDS011;9950;50.168;8.210;2024-03-22T12:17:47;14.30;;;9.60;;
19605;SDS011;9950;50.168;8.210;2024-03-22T12:20:13;17.98;;;10.40;;
19605;SDS011;9950;50.168;8.210;2024-03-22T12:22:41;13.70;;;9.00;;
19605;SDS011;9950;50.168;8.210;2024-03-22T12:25:09;13.90;;;9.43;;
19605;SDS011;9950;50.168;8.210;2024-03-22T12:27:37;15.95;;;9.77;;
19605;SDS011;9950;50.168;8.210;2024-03-22T12:30:03;18.00;;;10.55;;
19605;SDS011;9950;50.168;8.210;2024-03-22T12:32:31;17.98;;;10.57;;
19605;SDS011;9950;50.168;8.210;2024-03-22T12:34:57;14.57;;;8.80;;
19605;SDS011;9950;50.168;8.210;2024-03-22T12:37:24;13.82;;;9.00;;
19605;SDS011;9950;50.168;8.210;2024-03-22T12:39:50;16.80;;;9.38;;
19605;SDS011;9950;50.168;8.210;2024-03-22T12:42:19;13.43;;;9.32;;
19605;SDS011;9950;50.168;8.210;2024-03-22T12:44:45;16.70;;;9.80;;
19605;SDS011;9950;50.168;8.210;2024-03-22T12:47:12;14.30;;;9.38;;
19605;SDS011;9950;50.168;8.210;2024-03-22T12:49:39;12.15;;;8.10;;
19605;SDS011;9950;50.168;8.210;2024-03-22T12:52:06;12.13;;;8.50;;
19605;SDS011;9950;50.168;8.210;2024-03-22T12:54:32;13.23;;;8.15;;
19605;SDS011;9950;50.168;8.210;2024-03-22T12:56:59;13.68;;;8.45;;
19605;SDS011;9950;50.168;8.210;2024-03-22T12:59:27;12.68;;;8.25;;
19605;SDS011;9950;50.168;8.210;2024-03-22T13:01:54;12.77;;;7.88;;
19605;SDS011;9950;50.168;8.210;2024-03-22T13:04:20;12.75;;;8.23;;
19605;SDS011;9950;50.168;8.210;2024-03-22T13:06:48;13.00;;;8.18;;
19605;SDS011;9950;50.168;8.210;2024-03-22T13:09:14;13.82;;;8.70;;
19605;SDS011;9950;50.168;8.210;2024-03-22T13:11:45;15.30;;;9.05;;
19605;SDS011;9950;50.168;8.210;2024-03-22T13:14:11;13.43;;;8.50;;
19605;SDS011;9950;50.168;8.210;2024-03-22T13:16:40;11.98;;;8.32;;
19605;SDS011;9950;50.168;8.210;2024-03-22T13:19:06;18.55;;;9.95;;
19605;SDS011;9950;50.168;8.210;2024-03-22T13:21:37;16.30;;;9.95;;
19605;SDS011;9950;50.168;8.210;2024-03-22T13:24:03;16.65;;;10.05;;
19605;SDS011;9950;50.168;8.210;2024-03-22T13:26:30;14.20;;;9.15;;
19605;SDS011;9950;50.168;8.210;2024-03-22T13:28:57;18.95;;;9.95;;
19605;SDS011;9950;50.168;8.210;2024-03-22T13:31:24;15.15;;;8.93;;
19605;SDS011;9950;50.168;8.210;2024-03-22T13:33:51;14.40;;;9.43;;
19605;SDS011;9950;50.168;8.210;2024-03-22T13:36:19;15.65;;;9.57;;
19605;SDS011;9950;50.168;8.210;2024-03-22T13:38:45;16.50;;;9.35;;
19605;SDS011;9950;50.168;8.210;2024-03-22T13:41:12;17.98;;;9.75;;
19605;SDS011;9950;50.168;8.210;2024-03-22T13:43:39;16.73;;;9.60;;
19605;SDS011;9950;50.168;8.210;2024-03-22T13:46:08;17.70;;;9.93;;
19605;SDS011;9950;50.168;8.210;2024-03-22T13:48:37;16.27;;;9.23;;
19605;SDS011;9950;50.168;8.210;2024-03-22T13:51:06;17.88;;;9.90;;
19605;SDS011;9950;50.168;8.210;2024-03-22T13:53:32;13.80;;;10.10;;
19605;SDS011;9950;50.168;8.210;2024-03-22T13:55:59;16.95;;;9.80;;
19605;SDS011;9950;50.168;8.210;2024-03-22T13:58:26;15.00;;;9.73;;
19605;SDS011;9950;50.168;8.210;2024-03-22T14:00:53;18.58;;;9.90;;
19605;SDS011;9950;50.168;8.210;2024-03-22T14:03:19;20.08;;;9.93;;
19605;SDS011;9950;50.168;8.210;2024-03-22T14:05:47;16.88;;;9.90;;
19605;SDS011;9950;50.168;8.210;2024-03-22T14:08:14;12.75;;;8.73;;
19605;SDS011;9950;50.168;8.210;2024-03-22T14:10:42;16.00;;;11.00;;
19605;SDS011;9950;50.168;8.210;2024-03-22T14:13:08;17.38;;;9.98;;
19605;SDS011;9950;50.168;8.210;2024-03-22T14:15:35;14.48;;;9.75;;
19605;SDS011;9950;50.168;8.210;2024-03-22T14:18:02;16.10;;;10.35;;
19605;SDS011;9950;50.168;8.210;2024-03-22T14:20:29;15.63;;;9.65;;
19605;SDS011;9950;50.168;8.210;2024-03-22T14:22:56;16.52;;;10.30;;
19605;SDS011;9950;50.168;8.210;2024-03-22T14:25:24;16.65;;;10.23;;
19605;SDS011;9950;50.168;8.210;2024-03-22T14:27:52;13.93;;;9.57;;
19605;SDS011;9950;50.168;8.210;2024-03-22T14:30:19;16.50;;;10.90;;
19605;SDS011;9950;50.168;8.210;2024-03-22T14:32:46;18.73;;;10.27;;
19605;SDS011;9950;50.168;8.210;2024-03-22T14:35:13;17.58;;;10.75;;
19605;SDS011;9950;50.168;8.210;2024-03-22T14:37:40;14.85;;;9.65;;
19605;SDS011;9950;50.168;8.210;2024-03-22T14:40:08;14.25;;;9.65;;
19605;SDS011;9950;50.168;8.210;2024-03-22T14:42:37;14.73;;;9.55;;